Time;durP1;ratioP1;P1;durP2;ratioP2;P2;SDS_P1;SDS_P2;PMS_P1;PMS_P2;Temp;Humidity;BMP_temperature;BMP_pressure;BME280_temperature;BME280_humidity;BME280_pressure;Samples;Min_cycle;Max_cycle;Signal;HPM_P1;HPM_P2
2022/05/17 00:00:10;;;;;;;12.15;7.40;;;;;;;21.39;68.87;98114.09;5435671;26;20737;-72
2022/05/17 00:02:38;;;;;;;13.40;7.45;;;;;;;20.86;70.91;98115.03;5435878;26;20082;-72
2022/05/17 00:05:05;;;;;;;15.93;7.55;;;;;;;20.97;70.63;98122.81;5436004;26;20142;-72
2022/05/17 00:07:32;;;;;;;12.93;7.53;;;;;;;20.75;71.20;98115.09;5435488;26;20067;-72
2022/05/17 00:09:59;;;;;;;17.95;7.50;;;;;;;20.59;71.94;98114.69;5435923;26;20126;-72
2022/05/17 00:12:26;;;;;;;13.02;7.82;;;;;;;20.75;71.44;98110.69;5435777;26;20126;-73
2022/05/17 00:14:53;;;;;;;13.13;7.22;;;;;;;20.72;71.33;98113.53;5435595;26;20067;-72
2022/05/17 00:17:20;;;;;;;16.40;7.53;;;;;;;20.39;72.81;98114.50;5435816;26;20111;-73
2022/05/17 00:19:47;;;;;;;14.20;7.55;;;;;;;20.13;73.97;98113.16;5415180;26;20107;-72
2022/05/17 00:22:14;;;;;;;16.55;7.90;;;;;;;20.38;72.99;98112.00;5415012;26;20477;-72
2022/05/17 00:24:41;;;;;;;14.82;7.80;;;;;;;20.46;72.35;98109.63;5428858;26;222089;-72
2022/05/17 00:27:08;;;;;;;12.70;7.25;;;;;;;20.14;73.74;98107.81;5436843;26;20524;-73
2022/05/17 00:29:35;;;;;;;12.88;7.47;;;;;;;20.10;73.92;98106.41;5436876;26;20359;-72
2022/05/17 00:32:03;;;;;;;15.32;7.32;;;;;;;20.06;73.75;98111.97;5437272;26;20114;-72
2022/05/17 00:34:31;;;;;;;12.50;7.05;;;;;;;20.17;73.16;98111.94;5436862;26;20054;-72
2022/05/17 00:36:58;;;;;;;13.68;7.32;;;;;;;19.94;73.35;98116.41;5416832;26;20349;-72
2022/05/17 00:39:25;;;;;;;12.32;7.40;;;;;;;19.82;73.45;98112.16;5436983;26;20043;-72
2022/05/17 00:41:52;;;;;;;12.30;7.40;;;;;;;19.55;74.04;98112.50;5436745;26;20065;-73
2022/05/17 00:47:13;;;;;;;13.23;8.00;;;;;;;19.41;74.24;98110.13;5437341;26;20046;-72
2022/05/17 00:49:51;;;;;;;18.08;8.10;;;;;;;19.59;73.34;98104.34;5436835;26;20337;-72
2022/05/17 00:52:31;;;;;;;13.10;8.00;;;;;;;19.49;73.43;98100.75;5416847;26;20450;-73
2022/05/17 00:55:08;;;;;;;12.82;8.27;;;;;;;19.26;74.70;98099.91;5416429;26;20138;-72
2022/05/17 00:57:42;;;;;;;17.12;8.27;;;;;;;19.04;76.17;98097.28;5437170;26;20106;-72
2022/05/17 01:00:12;;;;;;;14.85;8.20;;;;;;;19.47;74.15;98105.28;5416834;26;20741;-72
2022/05/17 01:02:49;;;;;;;13.00;7.78;;;;;;;19.73;72.90;98110.28;5436595;26;20082;-72
2022/05/17 01:05:16;;;;;;;13.20;8.23;;;;;;;20.05;71.55;98116.41;5417029;26;20063;-72
2022/05/17 01:07:48;;;;;;;13.70;7.50;;;;;;;19.76;72.70;98118.69;5416807;26;20527;-72
2022/05/17 01:10:15;;;;;;;14.38;7.80;;;;;;;19.46;74.41;98123.69;5436741;26;20130;-72
2022/05/17 01:12:42;;;;;;;13.98;7.75;;;;;;;19.55;74.45;98120.34;5436988;26;20071;-72
2022/05/17 01:15:11;;;;;;;15.07;7.43;;;;;;;19.44;74.58;98129.03;5416727;26;20067;-72
2022/05/17 01:17:40;;;;;;;13.57;7.40;;;;;;;19.55;74.06;98130.81;5436569;26;20055;-72
2022/05/17 01:20:10;;;;;;;12.32;7.25;;;;;;;19.57;73.59;98128.97;5416869;26;20051;-72
2022/05/17 01:22:37;;;;;;;15.38;7.43;;;;;;;19.01;76.29;98141.97;5436712;26;20415;-72
2022/05/17 01:25:05;;;;;;;15.27;7.55;;;;;;;19.76;73.11;98144.88;5436809;26;20126;-72
2022/05/17 01:27:53;;;;;;;14.70;7.68;;;;;;;19.89;72.62;98144.78;5436780;26;20105;-72
2022/05/17 01:30:26;;;;;;;13.60;7.12;;;;;;;19.44;74.23;98143.91;5416684;26;20106;-72
2022/05/17 01:32:53;;;;;;;13.30;7.35;;;;;;;19.75;73.12;98145.00;5437106;26;20106;-72
2022/05/17 01:35:21;;;;;;;11.88;6.60;;;;;;;19.81;72.72;98142.75;5437023;26;20065;-72
2022/05/17 01:37:56;;;;;;;12.65;6.70;;;;;;;20.26;70.50;98141.81;5436466;26;20071;-72
2022/05/17 01:40:24;;;;;;;12.95;6.80;;;;;;;20.13;71.23;98153.28;5416756;26;20110;-72
2022/05/17 01:42:51;;;;;;;12.80;6.78;;;;;;;19.97;71.97;98157.22;5436775;26;20059;-72
2022/05/17 01:45:18;;;;;;;15.32;7.53;;;;;;;20.11;71.70;98155.19;5436596;26;20065;-72
2022/05/17 01:47:46;;;;;;;13.38;6.97;;;;;;;20.08;71.70;98147.56;5436795;26;20417;-72
2022/05/17 01:50:13;;;;;;;14.52;7.00;;;;;;;20.05;71.91;98147.81;5436983;26;20094;-72
2022/05/17 01:52:40;;;;;;;13.57;7.05;;;;;;;20.02;72.19;98142.00;5415874;26;20357;-72
2022/05/17 01:55:07;;;;;;;12.00;6.80;;;;;;;20.01;72.26;98140.34;5436946;26;20085;-72
2022/05/17 01:57:34;;;;;;;12.68;7.32;;;;;;;20.17;71.92;98143.38;5416500;26;20077;-72
2022/05/17 02:00:04;;;;;;;12.57;7.22;;;;;;;20.13;72.34;98134.13;5436451;26;20131;-72
2022/05/17 02:02:32;;;;;;;13.50;6.40;;;;;;;20.46;70.84;98141.06;5436673;26;20069;-72
2022/05/17 02:05:04;;;;;;;12.00;6.70;;;;;;;19.79;72.91;98136.81;5436463;26;20056;-72
2022/05/17 02:07:31;;;;;;;12.23;6.43;;;;;;;19.97;72.92;98144.97;5416476;26;20106;-72
2022/05/17 02:09:58;;;;;;;14.95;6.85;;;;;;;20.26;71.64;98142.66;5436726;26;20403;-72
2022/05/17 02:12:26;;;;;;;13.77;7.05;;;;;;;19.93;73.31;98147.00;5415924;26;20417;-72
2022/05/17 02:14:52;;;;;;;12.80;6.60;;;;;;;20.16;72.49;98147.78;5436803;26;20098;-72
2022/05/17 02:17:19;;;;;;;12.02;6.78;;;;;;;20.28;71.54;98145.97;5436533;26;20067;-72
2022/05/17 02:19:46;;;;;;;14.38;6.50;;;;;;;20.38;71.31;98151.31;5436417;26;20440;-72
2022/05/17 02:22:14;;;;;;;12.52;6.40;;;;;;;20.55;71.64;98147.34;5436535;26;20113;-72
2022/05/17 02:24:40;;;;;;;11.98;6.47;;;;;;;20.19;74.08;98144.09;5436560;26;20071;-72
2022/05/17 02:27:07;;;;;;;11.93;5.95;;;;;;;20.40;73.00;98136.28;5436086;26;20363;-73
2022/05/17 02:29:34;;;;;;;11.40;6.32;;;;;;;20.56;72.32;98135.91;5436631;26;20358;-72
2022/05/17 02:32:01;;;;;;;12.15;6.50;;;;;;;20.39;72.59;98129.38;5436584;26;20134;-73
2022/05/17 02:34:29;;;;;;;11.60;6.60;;;;;;;20.60;71.82;98130.28;5436323;26;20401;-73
2022/05/17 02:36:56;;;;;;;12.93;7.30;;;;;;;20.84;71.30;98116.94;5436592;26;20165;-73
2022/05/17 02:39:23;;;;;;;11.85;7.12;;;;;;;20.99;71.54;98127.94;5436353;26;20062;-73
2022/05/17 02:41:50;;;;;;;12.23;6.75;;;;;;;21.37;71.24;98122.09;5436090;26;20106;-72
2022/05/17 02:44:17;;;;;;;13.35;6.55;;;;;;;21.05;72.41;98122.16;5436588;26;20074;-73
2022/05/17 02:46:44;;;;;;;11.05;6.80;;;;;;;20.97;73.48;98122.81;5436519;26;20102;-73
2022/05/17 02:49:11;;;;;;;12.98;6.82;;;;;;;21.27;71.20;98121.22;5435967;26;20107;-73
2022/05/17 02:51:38;;;;;;;12.00;6.37;;;;;;;21.33;70.21;98116.28;5436506;26;20118;-73
2022/05/17 02:54:07;;;;;;;11.85;6.65;;;;;;;21.67;68.09;98119.44;5436942;26;20115;-73
2022/05/17 02:56:33;;;;;;;10.75;6.43;;;;;;;21.21;69.48;98119.09;5437604;26;20067;-72
2022/05/17 02:59:00;;;;;;;11.32;6.60;;;;;;;21.57;68.44;98120.38;5437353;26;20071;-73
2022/05/17 03:01:28;;;;;;;13.27;6.87;;;;;;;21.37;68.76;98115.06;5437126;26;20059;-72
2022/05/17 03:03:55;;;;;;;9.98;6.40;;;;;;;21.13;70.09;98119.72;5417327;26;20067;-73
2022/05/17 03:06:22;;;;;;;11.25;6.78;;;;;;;20.91;71.13;98119.88;5437486;26;20130;-72
2022/05/17 03:08:49;;;;;;;12.13;6.72;;;;;;;20.66;72.03;98126.34;5416626;26;20063;-73
2022/05/17 03:11:17;;;;;;;11.68;6.45;;;;;;;20.94;70.67;98130.09;5437616;26;20374;-72
2022/05/17 03:13:44;;;;;;;14.48;6.47;;;;;;;20.44;72.95;98120.25;5417183;26;20208;-73
2022/05/17 03:16:11;;;;;;;10.00;5.55;;;;;;;20.74;69.89;98113.44;5437144;26;20107;-73
2022/05/17 03:18:39;;;;;;;8.90;5.03;;;;;;;20.29;70.68;98118.81;5437355;26;20094;-72
2022/05/17 03:21:06;;;;;;;8.63;4.43;;;;;;;20.11;71.35;98112.47;5417328;26;20062;-72
2022/05/17 03:23:34;;;;;;;9.38;4.37;;;;;;;19.43;73.70;98100.38;5436729;26;20122;-72
2022/05/17 03:26:01;;;;;;;8.55;3.78;;;;;;;19.19;74.61;98100.50;5417315;26;20106;-72
2022/05/17 03:28:28;;;;;;;9.10;3.25;;;;;;;19.08;74.44;98101.31;5437365;26;20118;-72
2022/05/17 03:30:55;;;;;;;8.98;3.50;;;;;;;18.98;74.77;98100.38;5437073;26;20129;-72
2022/05/17 03:33:21;;;;;;;7.50;3.35;;;;;;;19.25;73.70;98097.44;5437340;26;20106;-72
2022/05/17 03:35:48;;;;;;;8.05;3.45;;;;;;;19.49;72.61;98092.91;5437545;26;20107;-72
2022/05/17 03:38:15;;;;;;;8.60;3.35;;;;;;;19.57;72.03;98103.63;5436983;26;20103;-72
2022/05/17 03:40:42;;;;;;;9.27;3.08;;;;;;;19.57;71.47;98098.41;5437530;26;20464;-72
2022/05/17 03:43:09;;;;;;;7.68;3.00;;;;;;;19.46;72.08;98108.84;5436921;26;20090;-72
2022/05/17 03:45:36;;;;;;;6.18;2.90;;;;;;;19.60;71.22;98102.56;5437485;26;20461;-72
2022/05/17 03:48:04;;;;;;;6.43;2.80;;;;;;;19.96;70.07;98111.06;5437296;26;20099;-72
2022/05/17 03:50:31;;;;;;;7.50;3.22;;;;;;;20.04;69.78;98111.28;5437137;26;20409;-72
2022/05/17 03:53:00;;;;;;;9.07;3.50;;;;;;;20.22;69.10;98109.81;5437317;26;20077;-72
2022/05/17 03:55:28;;;;;;;6.55;3.10;;;;;;;20.54;67.78;98115.06;5417008;26;20106;-72
2022/05/17 03:57:54;;;;;;;8.73;3.08;;;;;;;20.44;67.89;98108.91;5436909;26;20464;-72
2022/05/17 04:00:22;;;;;;;6.93;3.17;;;;;;;20.79;66.86;98111.25;5437396;26;20118;-72
2022/05/17 04:02:49;;;;;;;7.93;2.97;;;;;;;20.73;66.70;98111.75;5437163;26;20443;-72
2022/05/17 04:05:17;;;;;;;6.07;3.08;;;;;;;20.68;66.85;98116.53;5436242;26;20085;-72
2022/05/17 04:07:45;;;;;;;8.10;2.78;;;;;;;20.92;65.76;98117.13;5437106;26;20098;-72
2022/05/17 04:10:14;;;;;;;8.05;2.80;;;;;;;20.64;66.96;98121.22;5437265;26;20117;-72
2022/05/17 04:12:42;;;;;;;7.12;2.92;;;;;;;20.80;65.55;98123.38;5416315;26;20115;-72
2022/05/17 04:15:13;;;;;;;9.52;3.17;;;;;;;20.85;65.95;98123.03;5416910;26;20166;-72
2022/05/17 04:17:40;;;;;;;7.28;3.00;;;;;;;20.59;66.76;98125.16;5437271;26;20047;-73
2022/05/17 04:20:14;;;;;;;8.05;3.20;;;;;;;20.96;65.48;98128.19;5436893;26;20055;-73
2022/05/17 04:22:46;;;;;;;9.32;3.10;;;;;;;20.53;66.66;98131.75;5436716;26;20107;-73
2022/05/17 04:25:15;;;;;;;8.20;2.90;;;;;;;20.83;66.08;98128.38;5437048;26;20047;-73
2022/05/17 04:27:43;;;;;;;7.37;2.90;;;;;;;20.65;66.78;98122.88;5416859;26;20102;-73
2022/05/17 04:30:11;;;;;;;8.00;3.47;;;;;;;20.63;66.96;98129.19;5437166;26;20066;-73
2022/05/17 04:32:38;;;;;;;7.53;3.20;;;;;;;20.60;67.52;98137.31;5436801;26;20107;-73
2022/05/17 04:35:05;;;;;;;8.02;3.30;;;;;;;20.65;67.39;98124.69;5416833;26;20130;-73
2022/05/17 04:37:32;;;;;;;8.40;3.17;;;;;;;20.74;67.03;98129.16;5437088;26;20650;-73
2022/05/17 04:39:59;;;;;;;8.52;3.40;;;;;;;20.71;67.57;98130.22;5436925;26;20089;-73
2022/05/17 04:42:27;;;;;;;7.25;3.00;;;;;;;20.49;68.09;98127.72;5437027;26;20115;-73
2022/05/17 04:44:54;;;;;;;9.35;3.00;;;;;;;20.70;67.48;98127.72;5437145;26;20556;-73
2022/05/17 04:47:21;;;;;;;8.18;3.15;;;;;;;20.77;66.76;98128.91;5436706;26;20417;-73
2022/05/17 04:49:48;;;;;;;8.65;2.97;;;;;;;20.96;65.55;98133.44;5437293;26;20059;-73
2022/05/17 04:52:15;;;;;;;8.50;2.90;;;;;;;20.74;66.74;98126.53;5437151;26;20570;-73
2022/05/17 04:54:42;;;;;;;7.00;3.00;;;;;;;21.03;65.91;98140.66;5436911;26;20050;-73
2022/05/17 04:57:10;;;;;;;6.97;2.80;;;;;;;20.78;66.90;98138.44;5437072;26;20057;-74
2022/05/17 04:59:37;;;;;;;8.43;3.15;;;;;;;20.77;66.85;98136.75;5437393;26;20123;-73
2022/05/17 05:02:05;;;;;;;7.82;3.35;;;;;;;21.24;65.51;98137.19;5436569;26;20126;-73
2022/05/17 05:04:32;;;;;;;6.20;2.80;;;;;;;20.79;66.45;98143.53;5437273;26;20111;-73
2022/05/17 05:06:59;;;;;;;7.47;3.12;;;;;;;20.83;66.60;98135.41;5437321;26;20130;-73
2022/05/17 05:09:26;;;;;;;7.28;3.00;;;;;;;20.79;66.55;98142.72;5436727;26;20106;-73
2022/05/17 05:11:53;;;;;;;6.00;2.72;;;;;;;21.11;66.22;98150.50;5437037;26;20384;-73
2022/05/17 05:14:20;;;;;;;8.25;3.05;;;;;;;21.39;64.61;98138.56;5436755;26;20061;-73
2022/05/17 05:16:47;;;;;;;6.72;2.97;;;;;;;21.73;63.50;98144.34;5436952;26;20058;-73
2022/05/17 05:19:14;;;;;;;8.30;3.00;;;;;;;22.14;62.00;98148.66;5436847;26;20066;-73
2022/05/17 05:21:42;;;;;;;6.03;2.70;;;;;;;22.22;61.90;98147.94;5436725;26;20059;-73
2022/05/17 05:24:11;;;;;;;7.68;3.08;;;;;;;22.61;60.38;98143.56;5436784;26;20127;-73
2022/05/17 05:26:38;;;;;;;7.82;3.00;;;;;;;22.80;60.07;98150.63;5437150;26;20070;-73
2022/05/17 05:29:06;;;;;;;7.20;3.10;;;;;;;23.04;59.63;98155.44;5436462;26;20106;-73
2022/05/17 05:31:33;;;;;;;9.07;2.97;;;;;;;23.01;59.19;98158.38;5437079;26;20073;-73
2022/05/17 05:34:00;;;;;;;6.47;2.90;;;;;;;22.09;62.37;98153.47;5436967;26;20408;-73
2022/05/17 05:36:28;;;;;;;6.85;3.05;;;;;;;21.69;63.90;98145.56;5416157;26;20047;-73
2022/05/17 05:38:55;;;;;;;7.35;2.92;;;;;;;22.27;62.44;98156.28;5416470;26;20443;-73
2022/05/17 05:41:22;;;;;;;7.07;2.90;;;;;;;21.90;62.92;98143.72;5436941;26;20080;-73
2022/05/17 05:43:49;;;;;;;6.70;3.08;;;;;;;21.91;63.33;98147.19;5436392;26;20061;-73
2022/05/17 05:46:16;;;;;;;7.50;2.80;;;;;;;22.37;62.17;98156.28;5437009;26;20114;-73
2022/05/17 05:48:43;;;;;;;6.97;2.90;;;;;;;22.74;60.14;98153.78;5436647;26;20067;-73
2022/05/17 05:51:11;;;;;;;7.18;3.40;;;;;;;22.87;59.95;98150.94;5436425;26;20114;-73
2022/05/17 05:53:39;;;;;;;8.90;2.90;;;;;;;22.85;60.81;98161.56;5437029;26;20122;-73
2022/05/17 05:56:08;;;;;;;9.60;3.30;;;;;;;23.20;58.82;98149.63;5432160;26;20118;-73
2022/05/17 05:58:39;;;;;;;8.18;3.40;;;;;;;22.72;60.21;98150.47;5435540;26;20437;-73
2022/05/17 06:01:07;;;;;;;8.90;3.17;;;;;;;22.93;59.88;98158.25;5435174;26;20130;-73
2022/05/17 06:03:35;;;;;;;10.73;3.33;;;;;;;23.49;58.41;98160.03;5435311;26;20099;-73
2022/05/17 06:06:03;;;;;;;7.12;3.00;;;;;;;23.27;58.43;98162.03;5436053;26;20043;-73
2022/05/17 06:08:30;;;;;;;10.70;3.20;;;;;;;23.84;57.03;98152.31;5435920;26;20106;-73
2022/05/17 06:10:58;;;;;;;9.68;3.20;;;;;;;23.76;56.60;98157.47;5435378;26;20134;-73
2022/05/17 06:13:24;;;;;;;7.62;3.10;;;;;;;23.52;57.68;98157.97;5435775;26;20106;-73
2022/05/17 06:15:52;;;;;;;8.35;3.47;;;;;;;22.72;60.51;98168.88;5435948;26;20428;-73
2022/05/17 06:18:20;;;;;;;9.32;3.45;;;;;;;22.67;60.32;98163.22;5435509;26;20051;-76
2022/05/17 06:20:52;;;;;;;8.27;3.00;;;;;;;22.14;62.12;98153.06;5415169;26;20086;-77
2022/05/17 06:23:20;;;;;;;10.43;3.60;;;;;;;22.04;62.12;98157.44;5434733;26;20069;-77
2022/05/17 06:25:47;;;;;;;7.85;3.20;;;;;;;22.16;63.20;98169.53;5435820;26;20457;-78
2022/05/17 06:28:14;;;;;;;7.68;3.22;;;;;;;22.10;62.45;98159.53;5436497;26;20063;-78
2022/05/17 06:30:41;;;;;;;6.55;2.90;;;;;;;22.38;62.04;98177.16;5435979;26;20086;-78
2022/05/17 06:33:10;;;;;;;10.40;3.70;;;;;;;22.32;62.03;98179.50;5436135;26;20065;-78
2022/05/17 06:35:41;;;;;;;7.75;3.60;;;;;;;22.55;61.79;98173.03;5416361;26;20102;-78
2022/05/17 06:38:09;;;;;;;8.85;2.92;;;;;;;22.98;60.08;98170.03;5436860;26;20117;-77
2022/05/17 06:40:36;;;;;;;7.60;3.37;;;;;;;22.86;60.87;98170.28;5436451;26;20122;-78
2022/05/17 06:43:04;;;;;;;9.05;3.10;;;;;;;22.92;60.75;98175.00;5436418;26;20105;-78
2022/05/17 06:45:31;;;;;;;11.02;3.30;;;;;;;22.89;60.43;98164.75;5436623;26;20051;-79
2022/05/17 06:47:58;;;;;;;8.48;3.47;;;;;;;22.95;61.54;98172.91;5436643;26;20102;-77
2022/05/17 06:50:25;;;;;;;10.68;3.53;;;;;;;23.07;60.89;98168.31;5436650;26;20115;-78
2022/05/17 06:52:51;;;;;;;8.23;3.40;;;;;;;22.45;62.61;98180.09;5435688;26;20368;-77
2022/05/17 06:55:18;;;;;;;11.10;3.33;;;;;;;22.57;62.99;98179.00;5416054;26;20126;-77
2022/05/17 06:57:48;;;;;;;10.50;4.03;;;;;;;23.11;61.35;98174.16;5436417;26;20058;-77
2022/05/17 07:00:15;;;;;;;6.10;3.20;;;;;;;22.63;62.19;98186.31;5416776;26;20107;-78
2022/05/17 07:02:43;;;;;;;10.27;3.60;;;;;;;22.84;62.05;98182.75;5435892;26;20420;-77
2022/05/17 07:05:10;;;;;;;7.62;3.47;;;;;;;22.08;64.45;98174.63;5436578;26;20583;-76
2022/05/17 07:07:38;;;;;;;6.95;3.20;;;;;;;22.29;64.08;98185.03;5436014;26;20063;-77
2022/05/17 07:13:08;;;;;;;6.72;3.40;;;;;;;22.53;63.41;98188.94;5412930;26;20129;-77
2022/05/17 07:15:37;;;;;;;9.65;4.00;;;;;;;22.55;64.20;98188.81;5436107;26;20456;-76
2022/05/17 07:18:05;;;;;;;9.82;3.55;;;;;;;22.40;63.85;98193.63;5415968;26;20074;-77
2022/05/17 07:20:32;;;;;;;8.82;3.65;;;;;;;22.51;64.40;98193.50;5436719;26;20190;-76
2022/05/17 07:23:03;;;;;;;8.95;3.60;;;;;;;22.69;63.22;98190.22;5435449;26;20517;-75
2022/05/17 07:25:34;;;;;;;16.42;5.05;;;;;;;22.54;63.29;98192.41;5436071;26;20066;-76
2022/05/17 07:28:01;;;;;;;8.05;3.80;;;;;;;22.29;65.57;98200.81;5415609;26;20104;-75
2022/05/17 07:30:28;;;;;;;11.25;4.10;;;;;;;22.24;64.93;98195.97;5397374;26;20063;-76
2022/05/17 07:32:55;;;;;;;10.75;3.55;;;;;;;22.50;64.36;98205.00;5415125;26;20081;-76
2022/05/17 07:35:23;;;;;;;9.65;3.90;;;;;;;22.51;64.29;98198.75;5435806;26;20150;-76
2022/05/17 07:37:51;;;;;;;9.13;3.60;;;;;;;22.06;65.51;98195.78;5436459;26;20059;-77
2022/05/17 07:40:19;;;;;;;9.82;4.82;;;;;;;22.52;64.57;98200.41;5436572;26;20135;-77
2022/05/17 07:42:46;;;;;;;9.68;3.70;;;;;;;22.62;64.36;98204.88;5435241;26;20070;-77
2022/05/17 07:45:14;;;;;;;9.48;3.95;;;;;;;22.21;65.30;98191.78;5415631;26;20055;-76
2022/05/17 07:47:41;;;;;;;9.20;3.92;;;;;;;21.91;65.71;98192.66;5397026;26;20079;-77
2022/05/17 07:50:09;;;;;;;7.50;3.47;;;;;;;21.82;65.97;98196.09;5436067;26;20402;-76
2022/05/17 07:52:36;;;;;;;11.45;3.72;;;;;;;22.32;65.50;98203.16;5435777;26;20051;-77
2022/05/17 07:55:04;;;;;;;8.80;3.95;;;;;;;22.21;65.90;98191.78;5436259;26;20057;-77
2022/05/17 07:57:31;;;;;;;7.40;3.53;;;;;;;22.08;66.50;98195.63;5435507;26;20440;-77
2022/05/17 07:59:58;;;;;;;8.52;3.80;;;;;;;22.49;65.28;98195.44;5436470;26;20110;-77
2022/05/17 08:02:25;;;;;;;8.77;3.67;;;;;;;22.34;64.84;98193.38;5435192;26;20071;-77
2022/05/17 08:04:52;;;;;;;9.48;4.00;;;;;;;22.27;66.24;98195.69;5435535;26;20423;-77
2022/05/17 08:07:19;;;;;;;10.55;4.00;;;;;;;21.64;68.54;98198.50;5436303;26;20050;-76
2022/05/17 08:09:46;;;;;;;8.45;3.78;;;;;;;21.90;67.79;98198.88;5436084;26;20073;-77
2022/05/17 08:12:18;;;;;;;8.20;3.67;;;;;;;21.73;67.50;98201.28;5435717;26;20055;-77
2022/05/17 08:14:47;;;;;;;9.10;3.80;;;;;;;21.29;68.92;98192.78;5434907;26;20121;-77
2022/05/17 08:17:14;;;;;;;9.05;3.60;;;;;;;21.42;69.00;98198.66;5433843;26;20455;-76
2022/05/17 08:19:41;;;;;;;7.93;3.67;;;;;;;21.23;69.80;98199.31;5434335;26;20087;-76
2022/05/17 08:22:12;;;;;;;7.90;3.62;;;;;;;21.16;70.11;98200.81;5433624;26;20102;-76
2022/05/17 08:27:31;;;;;;;8.32;3.85;;;;;;;21.41;70.14;98206.66;5434241;26;20110;-77
2022/05/17 08:30:00;;;;;;;8.15;3.35;;;;;;;21.92;67.49;98209.25;5415262;26;20098;-77
2022/05/17 08:35:13;;;;;;;8.13;3.50;;;;;;;21.77;67.13;98206.12;5417110;26;20067;-78
2022/05/17 08:37:40;;;;;;;9.02;4.40;;;;;;;21.23;69.59;98203.75;5434100;26;20621;-77
2022/05/17 08:40:10;;;;;;;8.93;3.40;;;;;;;21.48;69.25;98206.03;5433875;26;20114;-77
2022/05/17 08:42:46;;;;;;;10.68;3.83;;;;;;;21.72;68.20;98213.59;5433503;26;20366;-77
2022/05/17 08:45:17;;;;;;;9.77;3.30;;;;;;;21.78;68.57;98214.84;5413430;26;20039;-78
2022/05/17 08:47:52;;;;;;;11.90;3.95;;;;;;;21.78;68.98;98215.69;5413870;26;20075;-77
2022/05/17 08:50:31;;;;;;;8.75;3.70;;;;;;;21.84;69.31;98216.97;5433408;26;20554;-77
2022/05/17 08:52:58;;;;;;;9.27;4.07;;;;;;;22.04;69.14;98208.19;5434873;26;20457;-77
2022/05/17 08:55:28;;;;;;;10.07;3.60;;;;;;;21.71;69.87;98211.09;5415220;26;20066;-78
2022/05/17 08:58:00;;;;;;;9.40;4.43;;;;;;;21.53;71.74;98210.87;5435914;26;20119;-76
2022/05/17 09:00:41;;;;;;;12.13;3.83;;;;;;;22.05;71.50;98206.41;5415752;26;20121;-78
2022/05/17 09:03:32;;;;;;;7.82;3.67;;;;;;;21.90;72.01;98212.03;5435861;26;20110;-77
2022/05/17 09:06:34;;;;;;;7.12;3.58;;;;;;;21.77;72.33;98210.56;5435891;26;20400;-78
2022/05/17 09:09:19;;;;;;;8.90;3.95;;;;;;;21.69;73.16;98197.25;5420237;26;20153;-77
2022/05/17 09:11:57;;;;;;;8.43;3.83;;;;;;;22.06;73.36;98203.66;5435310;26;20097;-77
2022/05/17 09:14:27;;;;;;;8.25;4.03;;;;;;;21.98;71.11;98197.38;5415425;26;20065;-77
2022/05/17 09:17:13;;;;;;;8.82;3.90;;;;;;;21.75;71.82;98199.38;5415448;26;20051;-78
2022/05/17 09:19:40;;;;;;;8.80;3.87;;;;;;;21.54;73.85;98205.47;5435898;26;20069;-78
2022/05/17 09:22:10;;;;;;;8.48;4.20;;;;;;;21.89;70.03;98197.19;5435232;26;20710;-78
2022/05/17 09:24:42;;;;;;;7.70;3.75;;;;;;;21.91;70.51;98191.84;5435587;26;20065;-79
2022/05/17 09:27:34;;;;;;;11.02;4.03;;;;;;;21.94;70.80;98194.19;5415219;26;20059;-78
2022/05/17 09:30:36;;;;;;;10.32;4.03;;;;;;;22.26;69.83;98195.84;5405488;26;20122;-77
2022/05/17 09:33:09;;;;;;;8.65;3.97;;;;;;;22.40;68.87;98198.06;5386203;26;20062;-78
2022/05/17 09:35:42;;;;;;;12.65;4.15;;;;;;;22.33;69.55;98200.41;5435701;26;20057;-78
2022/05/17 09:38:10;;;;;;;9.50;4.28;;;;;;;22.38;68.72;98207.88;5435915;26;20047;-77
2022/05/17 09:40:40;;;;;;;10.02;4.10;;;;;;;22.62;67.90;98203.06;5436056;26;20416;-77
2022/05/17 09:43:09;;;;;;;8.48;4.15;;;;;;;23.18;65.75;98205.03;5435095;26;20075;-76
2022/05/17 09:45:55;;;;;;;8.50;3.87;;;;;;;23.05;66.64;98196.59;5415289;26;20051;-77
2022/05/17 09:52:32;;;;;;;9.52;3.92;;;;;;;22.68;67.52;98199.06;5435287;26;20362;-77
2022/05/17 09:54:39;;;;;;;8.75;3.80;;;;;;;23.31;64.71;98195.03;5436188;26;20110;-77
2022/05/17 09:57:16;;;;;;;8.73;3.85;;;;;;;23.10;64.81;98191.75;5434877;26;20059;-77
2022/05/17 09:59:45;;;;;;;8.15;3.78;;;;;;;23.42;63.83;98194.03;5435799;26;20122;-78
2022/05/17 10:02:32;;;;;;;6.35;3.17;;;;;;;23.83;63.97;98187.56;5414896;26;20119;-77
2022/05/17 10:05:13;;;;;;;;;;;;;;;23.76;63.66;98188.28;5436935;26;20056;-78
2022/05/17 10:07:41;;;;;;;7.25;3.30;;;;;;;24.14;62.06;98190.72;5414590;26;20015;-78
2022/05/17 10:10:23;;;;;;;6.95;3.12;;;;;;;23.86;62.67;98192.53;5413978;26;20072;-78
2022/05/17 10:12:51;;;;;;;10.30;3.33;;;;;;;24.28;61.92;98188.56;5414898;26;20059;-78
2022/05/17 10:15:19;;;;;;;12.30;3.40;;;;;;;24.09;63.22;98192.13;5416101;26;20094;-78
2022/05/17 10:18:00;;;;;;;7.43;2.80;;;;;;;24.48;62.19;98184.84;5415512;26;20070;-78
2022/05/17 10:20:32;;;;;;;7.05;2.35;;;;;;;24.01;60.69;98190.22;5416168;26;20053;-78
2022/05/17 10:23:33;;;;;;;6.07;2.40;;;;;;;24.17;60.33;98185.16;5414969;26;20055;-78
2022/05/17 10:26:08;;;;;;;5.57;2.50;;;;;;;24.04;59.60;98189.94;5416718;26;20492;-78
2022/05/17 10:29:00;;;;;;;8.13;2.60;;;;;;;24.50;60.17;98186.34;5414259;26;20079;-78
2022/05/17 10:31:41;;;;;;;6.25;2.47;;;;;;;24.90;58.76;98187.72;5413037;26;20054;-78
2022/05/17 10:34:48;;;;;;;7.03;2.35;;;;;;;24.87;60.60;98184.53;5416485;26;20067;-78
2022/05/17 10:37:33;;;;;;;6.65;2.50;;;;;;;25.44;55.55;98180.53;5416506;26;20071;-79
2022/05/17 10:40:06;;;;;;;5.57;2.00;;;;;;;25.34;55.25;98179.81;5416057;26;20130;-79
2022/05/17 10:42:34;;;;;;;5.45;2.28;;;;;;;25.64;54.56;98170.59;5415147;26;20091;-78
2022/05/17 10:45:02;;;;;;;7.03;2.45;;;;;;;25.45;55.07;98176.91;5415999;26;20055;-79
2022/05/17 10:47:48;;;;;;;6.03;2.58;;;;;;;25.91;55.22;98177.50;5436776;26;20110;-79
2022/05/17 10:50:28;;;;;;;5.50;2.30;;;;;;;25.83;54.46;98173.00;5437147;26;20103;-78
2022/05/17 10:53:00;;;;;;;6.47;2.50;;;;;;;26.00;53.55;98167.78;5415827;26;20704;-79
2022/05/17 10:55:42;;;;;;;6.25;2.50;;;;;;;25.70;53.82;98169.13;5416648;26;20127;-79
2022/05/17 10:58:20;;;;;;;7.28;2.60;;;;;;;25.42;56.04;98179.03;5435971;26;20086;-79
2022/05/17 11:00:57;;;;;;;7.18;2.37;;;;;;;25.58;54.85;98171.19;5436757;26;20441;-79
2022/05/17 11:03:54;;;;;;;8.13;2.95;;;;;;;25.80;53.90;98169.84;5416597;26;20058;-79
2022/05/17 11:06:48;;;;;;;5.07;2.10;;;;;;;25.09;53.67;98170.88;5436748;26;20056;-79
2022/05/17 11:10:05;;;;;;;4.12;2.08;;;;;;;24.63;55.92;98171.97;5406660;26;20081;-79
2022/05/17 11:12:43;;;;;;;4.78;2.10;;;;;;;24.63;54.34;98162.22;5396923;26;20051;-79
2022/05/17 11:15:14;;;;;;;6.43;2.20;;;;;;;24.74;53.75;98155.91;5416148;26;20423;-79
2022/05/17 11:17:54;;;;;;;5.32;2.50;;;;;;;24.97;54.91;98167.62;5415410;26;20420;-80
2022/05/17 11:20:31;;;;;;;4.47;2.45;;;;;;;25.07;53.58;98168.41;5434284;26;20070;-80
2022/05/17 11:23:07;;;;;;;7.50;2.58;;;;;;;25.20;55.37;98157.44;5413958;26;20122;-80
2022/05/17 11:26:10;;;;;;;6.00;2.30;;;;;;;25.53;54.80;98150.53;5435407;26;20129;-78
2022/05/17 11:29:01;;;;;;;5.57;2.42;;;;;;;25.07;53.96;98159.66;5435111;26;20125;-77
2022/05/17 11:32:05;;;;;;;6.15;2.92;;;;;;;24.84;56.08;98159.28;5414510;26;20137;-78
2022/05/17 11:34:40;;;;;;;8.30;3.03;;;;;;;25.62;55.21;98149.56;5435785;26;20118;-78
2022/05/17 11:37:32;;;;;;;8.73;3.20;;;;;;;25.53;53.55;98152.38;5416333;26;20096;-78
2022/05/17 11:40:07;;;;;;;10.38;3.10;;;;;;;24.83;57.22;98146.25;5436308;26;20500;-76
2022/05/17 11:45:44;;;;;;;6.55;2.90;;;;;;;24.64;56.11;98144.59;5436701;26;20047;-76
2022/05/17 11:48:16;;;;;;;7.00;2.70;;;;;;;24.32;57.15;98150.41;5436081;26;20044;-75
2022/05/17 11:50:52;;;;;;;9.60;2.80;;;;;;;24.30;57.83;98147.88;5436033;26;20079;-76
2022/05/17 11:53:22;;;;;;;6.85;2.80;;;;;;;24.63;55.80;98149.03;5436251;26;20075;-76
2022/05/17 11:56:11;;;;;;;6.95;2.90;;;;;;;25.20;54.69;98146.03;5436411;26;20114;-76
2022/05/17 11:58:39;;;;;;;6.18;2.62;;;;;;;24.79;54.42;98143.09;5436177;26;20057;-76
2022/05/17 12:01:31;;;;;;;6.70;2.35;;;;;;;24.68;54.92;98141.53;5436034;26;20067;-76
2022/05/17 12:04:07;;;;;;;6.97;2.45;;;;;;;24.43;56.10;98139.63;5436592;26;20115;-76
2022/05/17 12:06:44;;;;;;;6.37;2.30;;;;;;;24.66;56.11;98143.47;5436643;26;20047;-76